Oriana — V7GV8 — position and weather

sailwx.info

Track history (hours):
 
Tides and Currents Weather Stations Pressure Air Temp Water Temp Dewpoint Dewpoint Depression Visibility Wind Speed Wind Dir Waves Ship Positions

Oriana

Last reported at 2018-Jun-22 23:34 UTC. Time now 2018-Jun-23 17:30 UTC.
Position N 49°19' W 123°10'.

Length 200 m; draft 7 m.

Type: Cargo ship. MMSI: 538007141.

Date/timePositionNaut miles runAvg speedWind from/ knotsBaromVisibWave heightAir tempDewpointWater temp
2018-Jun-22 23:34N 49°19' W 123°10'110.3
2018-Jun-22 23:28N 49°19' W 123°09'2 0.2
2018-Jun-22 12:43N 49°19' W 123°05'0 0.0
2018-Jun-22 12:22N 49°19' W 123°05'0 0.0
2018-Jun-22 11:52N 49°19' W 123°05'0 0.0
2018-Jun-21 12:46N 49°19' W 123°05'0 0.0
2018-Jun-21 06:52N 49°19' W 123°05'0 0.1
2018-Jun-21 06:10N 49°19' W 123°05'0 0.4
2018-Jun-21 05:38N 49°18' W 123°06'1 8.5
2018-Jun-21 05:30N 49°18' W 123°07'2 2.6
2018-Jun-21 04:48N 49°17' W 123°09'2 1.6
2018-Jun-21 03:39N 49°18' W 123°07'1 0.7
2018-Jun-21 01:25N 49°19' W 123°05'  
2018-Jun-15 04:59N 01°35' E 103°03'611.0
2018-Jun-15 04:24N 01°31' E 103°07'510.6
2018-Jun-15 03:57N 01°27' E 103°11'510.2
2018-Jun-15 03:27N 01°24' E 103°15'510.3
2018-Jun-15 02:58N 01°21' E 103°18'510.4
2018-Jun-15 02:30N 01°17' E 103°22'510.3
2018-Jun-15 02:00N 01°14' E 103°26'611.2
2018-Jun-15 01:30N 01°13' E 103°31'611.3
2018-Jun-15 01:00N 01°12' E 103°37'611.1
2018-Jun-15 00:30N 01°09' E 103°42'5 9.5
2018-Jun-15 00:00N 01°10' E 103°47'510.0
2018-Jun-14 23:30N 01°12' E 103°51'5 9.3
2018-Jun-14 23:00N 01°14' E 103°55'4 7.7
2018-Jun-14 22:30N 01°16' E 103°59'2 3.6
2018-Jun-14 21:58N 01°17' E 104°00'0 0.0
2018-Jun-14 21:30N 01°17' E 104°00'0 0.0
2018-Jun-14 20:58N 01°17' E 104°00'0 0.0
2018-Jun-14 20:24N 01°17' E 104°00'0 0.0
2018-Jun-14 19:55N 01°17' E 104°00'0 0.0
2018-Jun-14 19:27N 01°17' E 104°00'0 0.0
2018-Jun-14 18:57N 01°17' E 104°00'0 0.0
2018-Jun-14 18:30N 01°17' E 104°00'0 0.0
2018-Jun-14 17:54N 01°17' E 104°00'0 0.0
2018-Jun-14 17:27N 01°17' E 104°00'0 0.1
2018-Jun-14 16:48N 01°17' E 104°00'0 0.1
2018-Jun-14 16:30N 01°17' E 104°00'0 0.2
2018-Jun-14 15:58N 01°17' E 103°60'0 0.1
2018-Jun-14 14:54N 01°17' E 103°60'0 0.0
2018-Jun-14 14:30N 01°17' E 103°60'0 0.0
2018-Jun-14 13:54N 01°17' E 103°60'0 0.0
2018-Jun-14 13:24N 01°17' E 103°60'0 0.0
2018-Jun-14 12:42N 01°17' E 103°60'0 0.0
2018-Jun-14 12:30N 01°17' E 103°60'0 0.0
2018-Jun-14 12:00N 01°17' E 103°60'0 0.0
2018-Jun-14 11:30N 01°17' E 103°60'0 0.1
2018-Jun-14 10:54N 01°17' E 103°60'0 0.0
2018-Jun-14 10:28N 01°17' E 103°60'0 0.0
2018-Jun-14 09:54N 01°17' E 103°60'0 0.1
2018-Jun-14 09:30N 01°17' E 103°60'0 0.1
2018-Jun-14 09:00N 01°17' E 103°60'0 0.0
2018-Jun-14 08:30N 01°17' E 103°60'0 0.2
2018-Jun-14 07:54N 01°17' E 103°60'0 0.0
2018-Jun-14 07:30N 01°17' E 103°60'0 0.0
2018-Jun-14 06:54N 01°17' E 103°60'0 0.0
2018-Jun-14 06:27N 01°17' E 103°60'0 0.1
2018-Jun-14 05:57N 01°17' E 103°60'0 0.1
2018-Jun-14 05:13N 01°17' E 103°60'0 0.0
2018-Jun-14 04:54N 01°17' E 103°60'0 0.1
2018-Jun-14 04:30N 01°17' E 103°60'0 0.1
2018-Jun-14 03:54N 01°17' E 103°60'0 0.0
2018-Jun-14 03:27N 01°17' E 103°60'0 0.0
2018-Jun-14 02:39N 01°17' E 103°60'0 0.0
2018-Jun-14 02:27N 01°17' E 103°60'0 0.0
2018-Jun-14 01:57N 01°17' E 103°60'0 0.0
2018-Jun-14 01:22N 01°17' E 103°60'0 0.1
2018-Jun-14 00:57N 01°17' E 103°60'0 0.1
2018-Jun-14 00:30N 01°17' E 104°00'0 0.1
2018-Jun-13 23:57N 01°17' E 104°00'0 0.0
2018-Jun-13 23:30N 01°17' E 104°00'1 2.9
2018-Jun-13 23:00N 01°16' E 103°59'1 1.1
2018-Jun-13 22:30N 01°16' E 103°59'3 5.7
2018-Jun-13 22:00N 01°16' E 104°02'2 4.9
2018-Jun-13 21:30N 01°16' E 104°04'3 6.1
2018-Jun-13 21:00N 01°17' E 104°07'3 6.3
2018-Jun-13 20:30N 01°17' E 104°11'4 6.2
2018-Jun-13 19:55N 01°18' E 104°14'3 6.3
2018-Jun-13 19:28N 01°18' E 104°17'4 8.3
2018-Jun-13 19:00N 01°19' E 104°21'4 8.4
2018-Jun-13 18:30N 01°22' E 104°24'4 7.0
2018-Jun-13 18:00N 01°25' E 104°26'3 6.2
2018-Jun-13 17:30N 01°27' E 104°28'3 6.3
2018-Jun-13 17:00N 01°29' E 104°30'4 6.7
2018-Jun-13 16:27N 01°32' E 104°33'3 6.9
2018-Jun-13 16:00N 01°34' E 104°35'4 7.3
2018-Jun-13 15:28N 01°37' E 104°38'4 7.5
2018-Jun-13 14:57N 01°40' E 104°40'510.1
2018-Jun-13 14:28N 01°43' E 104°44'77068863.0
2018-Jun-13 13:36N 49°19' W 123°05'7694103358.4
2018-Jun-13 13:31N 01°51' E 104°50'7694101838.4
2018-Jun-13 13:27N 49°19' W 123°05'7693122539.5
2018-Jun-13 13:23N 01°52' E 104°51'410.5
2018-Jun-13 12:59N 01°56' E 104°52'7688766.0
2018-Jun-13 02:57N 49°19' W 123°05'0 0.0
2018-Jun-13 02:24N 49°19' W 123°05'0 0.0
2018-Jun-13 01:45N 49°19' W 123°05'0 0.0
2018-Jun-13 01:12N 49°19' W 123°05'0 0.0
2018-Jun-13 01:00N 49°19' W 123°05'0 0.0
2018-Jun-13 00:21N 49°19' W 123°05'0 0.0
2018-Jun-12 23:57N 49°19' W 123°05'  
Track history (hours):
 
Tides and Currents Weather Stations Pressure Air Temp Water Temp Dewpoint Dewpoint Depression Visibility Wind Speed Wind Dir Waves Ship Positions

Oriana

Last reported at 2018-Jun-22 23:34 UTC. Time now 2018-Jun-23 17:30 UTC.
Position N 49°19' W 123°10'.

Length 200 m; draft 7 m.

Type: Cargo ship. MMSI: 538007141.

Date/timePositionNaut miles runAvg speedWind from/ knotsBaromVisibWave heightAir tempDewpointWater temp
2018-Jun-22 23:34N 49°19' W 123°10'110.3
2018-Jun-22 23:28N 49°19' W 123°09'2 0.2
2018-Jun-22 12:43N 49°19' W 123°05'0 0.0
2018-Jun-22 12:22N 49°19' W 123°05'0 0.0
2018-Jun-22 11:52N 49°19' W 123°05'0 0.0
2018-Jun-21 12:46N 49°19' W 123°05'0 0.0
2018-Jun-21 06:52N 49°19' W 123°05'0 0.1
2018-Jun-21 06:10N 49°19' W 123°05'0 0.4
2018-Jun-21 05:38N 49°18' W 123°06'1 8.5
2018-Jun-21 05:30N 49°18' W 123°07'2 2.6
2018-Jun-21 04:48N 49°17' W 123°09'2 1.6
2018-Jun-21 03:39N 49°18' W 123°07'1 0.7
2018-Jun-21 01:25N 49°19' W 123°05'  
2018-Jun-15 04:59N 01°35' E 103°03'611.0
2018-Jun-15 04:24N 01°31' E 103°07'510.6
2018-Jun-15 03:57N 01°27' E 103°11'510.2
2018-Jun-15 03:27N 01°24' E 103°15'510.3
2018-Jun-15 02:58N 01°21' E 103°18'510.4
2018-Jun-15 02:30N 01°17' E 103°22'510.3
2018-Jun-15 02:00N 01°14' E 103°26'611.2
2018-Jun-15 01:30N 01°13' E 103°31'611.3
2018-Jun-15 01:00N 01°12' E 103°37'611.1
2018-Jun-15 00:30N 01°09' E 103°42'5 9.5
2018-Jun-15 00:00N 01°10' E 103°47'510.0
2018-Jun-14 23:30N 01°12' E 103°51'5 9.3
2018-Jun-14 23:00N 01°14' E 103°55'4 7.7
2018-Jun-14 22:30N 01°16' E 103°59'2 3.6
2018-Jun-14 21:58N 01°17' E 104°00'0 0.0
2018-Jun-14 21:30N 01°17' E 104°00'0 0.0
2018-Jun-14 20:58N 01°17' E 104°00'0 0.0
2018-Jun-14 20:24N 01°17' E 104°00'0 0.0
2018-Jun-14 19:55N 01°17' E 104°00'0 0.0
2018-Jun-14 19:27N 01°17' E 104°00'0 0.0
2018-Jun-14 18:57N 01°17' E 104°00'0 0.0
2018-Jun-14 18:30N 01°17' E 104°00'0 0.0
2018-Jun-14 17:54N 01°17' E 104°00'0 0.0
2018-Jun-14 17:27N 01°17' E 104°00'0 0.1
2018-Jun-14 16:48N 01°17' E 104°00'0 0.1
2018-Jun-14 16:30N 01°17' E 104°00'0 0.2
2018-Jun-14 15:58N 01°17' E 103°60'0 0.1
2018-Jun-14 14:54N 01°17' E 103°60'0 0.0
2018-Jun-14 14:30N 01°17' E 103°60'0 0.0
2018-Jun-14 13:54N 01°17' E 103°60'0 0.0
2018-Jun-14 13:24N 01°17' E 103°60'0 0.0
2018-Jun-14 12:42N 01°17' E 103°60'0 0.0
2018-Jun-14 12:30N 01°17' E 103°60'0 0.0
2018-Jun-14 12:00N 01°17' E 103°60'0 0.0
2018-Jun-14 11:30N 01°17' E 103°60'0 0.1
2018-Jun-14 10:54N 01°17' E 103°60'0 0.0
2018-Jun-14 10:28N 01°17' E 103°60'0 0.0
2018-Jun-14 09:54N 01°17' E 103°60'0 0.1
2018-Jun-14 09:30N 01°17' E 103°60'0 0.1
2018-Jun-14 09:00N 01°17' E 103°60'0 0.0
2018-Jun-14 08:30N 01°17' E 103°60'0 0.2
2018-Jun-14 07:54N 01°17' E 103°60'0 0.0
2018-Jun-14 07:30N 01°17' E 103°60'0 0.0
2018-Jun-14 06:54N 01°17' E 103°60'0 0.0
2018-Jun-14 06:27N 01°17' E 103°60'0 0.1
2018-Jun-14 05:57N 01°17' E 103°60'0 0.1
2018-Jun-14 05:13N 01°17' E 103°60'0 0.0
2018-Jun-14 04:54N 01°17' E 103°60'0 0.1
2018-Jun-14 04:30N 01°17' E 103°60'0 0.1
2018-Jun-14 03:54N 01°17' E 103°60'0 0.0
2018-Jun-14 03:27N 01°17' E 103°60'0 0.0
2018-Jun-14 02:39N 01°17' E 103°60'0 0.0
2018-Jun-14 02:27N 01°17' E 103°60'0 0.0
2018-Jun-14 01:57N 01°17' E 103°60'0 0.0
2018-Jun-14 01:22N 01°17' E 103°60'0 0.1
2018-Jun-14 00:57N 01°17' E 103°60'0 0.1
2018-Jun-14 00:30N 01°17' E 104°00'0 0.1
2018-Jun-13 23:57N 01°17' E 104°00'0 0.0
2018-Jun-13 23:30N 01°17' E 104°00'1 2.9
2018-Jun-13 23:00N 01°16' E 103°59'1 1.1
2018-Jun-13 22:30N 01°16' E 103°59'3 5.7
2018-Jun-13 22:00N 01°16' E 104°02'2 4.9
2018-Jun-13 21:30N 01°16' E 104°04'3 6.1
2018-Jun-13 21:00N 01°17' E 104°07'3 6.3
2018-Jun-13 20:30N 01°17' E 104°11'4 6.2
2018-Jun-13 19:55N 01°18' E 104°14'3 6.3
2018-Jun-13 19:28N 01°18' E 104°17'4 8.3
2018-Jun-13 19:00N 01°19' E 104°21'4 8.4
2018-Jun-13 18:30N 01°22' E 104°24'4 7.0
2018-Jun-13 18:00N 01°25' E 104°26'3 6.2
2018-Jun-13 17:30N 01°27' E 104°28'3 6.3
2018-Jun-13 17:00N 01°29' E 104°30'4 6.7
2018-Jun-13 16:27N 01°32' E 104°33'3 6.9
2018-Jun-13 16:00N 01°34' E 104°35'4 7.3
2018-Jun-13 15:28N 01°37' E 104°38'4 7.5
2018-Jun-13 14:57N 01°40' E 104°40'510.1
2018-Jun-13 14:28N 01°43' E 104°44'77068863.0
2018-Jun-13 13:36N 49°19' W 123°05'7694103358.4
2018-Jun-13 13:31N 01°51' E 104°50'7694101838.4
2018-Jun-13 13:27N 49°19' W 123°05'7693122539.5
2018-Jun-13 13:23N 01°52' E 104°51'410.5
2018-Jun-13 12:59N 01°56' E 104°52'7688766.0
2018-Jun-13 02:57N 49°19' W 123°05'0 0.0
2018-Jun-13 02:24N 49°19' W 123°05'0 0.0
2018-Jun-13 01:45N 49°19' W 123°05'0 0.0
2018-Jun-13 01:12N 49°19' W 123°05'0 0.0
2018-Jun-13 01:00N 49°19' W 123°05'0 0.0
2018-Jun-13 00:21N 49°19' W 123°05'0 0.0
2018-Jun-12 23:57N 49°19' W 123°05'  

Dump ship's entire track history